Slater, Colorado
Current Conditions -  °F | °C
As of 8:55 PM on Tuesday 25 Nov 2014 (Local Time) from KDWX Reporting Station
Overcast Overcast  
Wind Chill: 26°   Ceiling: 2800
Heat Index: 34°   Visibility: 10mi
Dew Point: 26°   Wind: 10mph
Humidity: 71%   Direction: 260°W
Pressure: 30.17"   Gusts: NA
Location:  41°N, 107.38°W
Report Text: KDWX 260355Z AUTO 26009KT 10SM OVC028 01/M03 A3017 RMK AO2 T00131035
Loading
Personal Weather Stations






























Interactive Weather Map New forecast layout! Learn more

10-Day Weather Forecast

Advertisements
Track Severe Weather on mobile